createdAt,value
2022-10-11T00:01:03.202Z,97955.00
2022-10-11T00:03:31.356Z,97948.00
2022-10-11T00:05:59.485Z,97940.00
2022-10-11T00:08:27.562Z,97938.00
2022-10-11T00:11:00.886Z,97930.00
2022-10-11T00:13:29.672Z,97927.00
2022-10-11T00:15:59.246Z,97940.00
2022-10-11T00:18:27.696Z,97927.00
2022-10-11T00:21:04.115Z,97929.00
2022-10-11T00:23:33.102Z,97944.00
2022-10-11T00:26:04.290Z,97952.00
2022-10-11T00:28:33.548Z,97945.00
2022-10-11T00:31:05.289Z,97944.00
2022-10-11T00:33:33.609Z,97949.00
2022-10-11T00:36:02.318Z,97964.00
2022-10-11T00:38:32.002Z,97956.00
2022-10-11T00:41:01.352Z,97968.00
2022-10-11T00:43:32.854Z,97951.00
2022-10-11T00:46:26.904Z,97959.00
2022-10-11T00:49:02.078Z,97954.00
2022-10-11T00:51:42.170Z,97954.00
2022-10-11T00:54:16.062Z,97959.00
2022-10-11T00:56:49.749Z,97963.00
2022-10-11T00:59:24.431Z,97948.00
2022-10-11T01:01:54.418Z,97948.00
2022-10-11T01:04:22.804Z,97959.00
2022-10-11T01:06:52.730Z,97962.00
2022-10-11T01:09:23.155Z,97956.00
2022-10-11T01:11:54.409Z,97957.00
2022-10-11T01:15:04.082Z,97956.00
2022-10-11T01:17:45.775Z,97951.00
2022-10-11T01:20:38.643Z,97961.00
2022-10-11T01:23:57.988Z,97955.00
2022-10-11T01:26:55.787Z,97966.00
2022-10-11T01:29:41.940Z,97963.00
2022-10-11T01:32:18.232Z,97953.00
2022-10-11T01:34:58.147Z,97948.00
2022-10-11T01:37:34.250Z,97958.00
2022-10-11T01:40:10.515Z,97960.00
2022-10-11T01:42:41.977Z,97965.00
2022-10-11T01:45:16.100Z,97951.00
2022-10-11T01:47:46.622Z,97964.00
2022-10-11T01:50:46.687Z,97956.00
2022-10-11T01:53:45.148Z,97954.00
2022-10-11T01:56:33.759Z,97957.00
2022-10-11T01:59:23.325Z,97964.00
2022-10-11T02:02:01.596Z,97959.00
2022-10-11T02:04:43.635Z,97962.00
2022-10-11T02:07:22.501Z,97958.00
2022-10-11T02:10:00.812Z,97965.00
2022-10-11T02:12:38.665Z,97968.00
2022-10-11T02:15:11.496Z,97961.00
2022-10-11T02:17:46.782Z,97966.00
2022-10-11T02:20:22.851Z,97972.00
2022-10-11T02:22:58.747Z,97979.00
2022-10-11T02:25:31.476Z,97975.00
2022-10-11T02:28:04.692Z,97986.00
2022-10-11T02:30:35.042Z,97991.00
2022-10-11T02:33:07.745Z,97973.00
2022-10-11T02:35:45.248Z,97991.00
2022-10-11T02:38:21.540Z,97989.00
2022-10-11T02:40:58.548Z,97978.00
2022-10-11T02:43:37.307Z,97980.00
2022-10-11T02:46:09.545Z,97986.00
2022-10-11T02:48:39.685Z,97991.00
2022-10-11T02:51:14.946Z,98000.00
2022-10-11T02:53:43.088Z,97980.00
2022-10-11T02:56:11.375Z,97984.00
2022-10-11T02:58:39.645Z,97992.00
2022-10-11T03:01:07.995Z,97988.00
2022-10-11T03:03:36.171Z,97992.00
2022-10-11T03:06:05.883Z,97996.00
2022-10-11T03:08:35.834Z,97995.00
2022-10-11T03:11:04.055Z,98012.00
2022-10-11T03:13:32.209Z,98011.00
2022-10-11T03:16:03.631Z,98008.00
2022-10-11T03:18:32.578Z,98015.00
2022-10-11T03:21:00.787Z,98028.00
2022-10-11T03:23:29.216Z,98023.00
2022-10-11T03:25:58.791Z,98028.00
2022-10-11T03:28:27.109Z,98028.00
2022-10-11T03:30:55.725Z,98025.00
2022-10-11T03:33:23.895Z,98017.00
2022-10-11T03:35:52.133Z,98030.00
2022-10-11T03:38:23.551Z,98025.00
2022-10-11T03:40:51.861Z,98028.00
2022-10-11T03:43:21.426Z,98014.00
2022-10-11T03:45:49.578Z,98023.00
2022-10-11T03:48:17.687Z,98017.00
2022-10-11T03:50:45.766Z,98027.00
2022-10-11T03:53:13.872Z,98032.00
2022-10-11T03:55:42.937Z,98027.00
2022-10-11T03:58:11.235Z,98035.00
2022-10-11T04:00:40.783Z,98034.00
2022-10-11T04:03:08.905Z,98037.00
2022-10-11T04:05:37.065Z,98036.00
2022-10-11T04:08:09.827Z,98037.00
2022-10-11T04:10:40.775Z,98033.00
2022-10-11T04:13:10.380Z,98033.00
2022-10-11T04:15:41.252Z,98043.00
2022-10-11T04:18:10.196Z,98047.00
2022-10-11T04:20:38.603Z,98038.00
2022-10-11T04:23:06.760Z,98038.00
2022-10-11T04:25:34.916Z,98041.00
2022-10-11T04:28:03.215Z,98046.00
2022-10-11T04:30:31.540Z,98046.00
2022-10-11T04:33:01.171Z,98051.00
2022-10-11T04:35:29.387Z,98042.00
2022-10-11T04:37:57.509Z,98041.00
2022-10-11T04:40:25.587Z,98054.00
2022-10-11T04:42:53.794Z,98051.00
2022-10-11T04:45:22.141Z,98038.00
2022-10-11T04:47:50.490Z,98054.00
2022-10-11T04:50:20.199Z,98050.00
2022-10-11T04:52:48.606Z,98048.00
2022-10-11T04:55:16.840Z,98048.00
2022-10-11T04:57:44.942Z,98052.00
2022-10-11T05:00:14.697Z,98052.00
2022-10-11T05:02:42.883Z,98050.00
2022-10-11T05:05:12.913Z,98039.00
2022-10-11T05:07:42.379Z,98051.00
2022-10-11T05:10:11.639Z,98061.00
2022-10-11T05:12:39.749Z,98065.00
2022-10-11T05:15:09.798Z,98056.00
2022-10-11T05:17:37.990Z,98061.00
2022-10-11T05:20:07.727Z,98072.00
2022-10-11T05:22:35.921Z,98067.00
2022-10-11T05:25:06.471Z,98063.00
2022-10-11T05:27:34.613Z,98075.00
2022-10-11T05:30:02.920Z,98078.00
2022-10-11T05:32:31.114Z,98077.00
2022-10-11T05:34:59.256Z,98079.00
2022-10-11T05:37:27.503Z,98088.00
2022-10-11T05:39:55.612Z,98094.00
2022-10-11T05:42:25.048Z,98088.00
2022-10-11T05:44:53.144Z,98090.00
2022-10-11T05:47:21.453Z,98114.00
2022-10-11T05:49:49.535Z,98098.00
2022-10-11T05:52:20.395Z,98102.00
2022-10-11T05:54:48.799Z,98108.00
2022-10-11T05:57:17.251Z,98124.00
2022-10-11T05:59:46.726Z,98123.00
2022-10-11T06:02:15.239Z,98116.00
2022-10-11T06:04:43.562Z,98123.00
2022-10-11T06:07:11.700Z,98120.00
2022-10-11T06:09:39.988Z,98122.00
2022-10-11T06:12:08.282Z,98124.00
2022-10-11T06:14:37.157Z,98133.00
2022-10-11T06:17:06.638Z,98136.00
2022-10-11T06:19:34.816Z,98146.00
2022-10-11T06:22:03.217Z,98158.00
2022-10-11T06:24:31.356Z,98150.00
2022-10-11T06:26:59.488Z,98160.00
2022-10-11T06:29:27.531Z,98156.00
2022-10-11T06:31:55.604Z,98157.00
2022-10-11T06:34:25.269Z,98159.00
2022-10-11T06:36:53.516Z,98148.00
2022-10-11T06:39:21.745Z,98160.00
2022-10-11T06:41:49.837Z,98160.00
2022-10-11T06:44:19.034Z,98166.00
2022-10-11T06:46:47.112Z,98170.00
2022-10-11T06:49:19.345Z,98165.00
2022-10-11T06:51:51.830Z,98179.00
2022-10-11T06:54:19.961Z,98182.00
2022-10-11T06:56:48.086Z,98183.00
2022-10-11T06:59:16.322Z,98190.00
2022-10-11T07:01:44.502Z,98182.00
2022-10-11T07:04:12.605Z,98188.00
2022-10-11T07:06:42.521Z,98209.00
2022-10-11T07:09:12.195Z,98199.00
2022-10-11T07:11:40.345Z,98208.00
2022-10-11T07:14:08.934Z,98198.00
2022-10-11T07:16:37.469Z,98208.00
2022-10-11T07:19:07.882Z,98205.00
2022-10-11T07:21:36.838Z,98204.00
2022-10-11T07:24:05.719Z,98216.00
2022-10-11T07:26:38.557Z,98205.00
2022-10-11T07:29:09.122Z,98212.00
2022-10-11T07:31:39.433Z,98223.00
2022-10-11T07:34:07.762Z,98213.00
2022-10-11T07:36:36.024Z,98227.00
2022-10-11T07:39:06.217Z,98222.00
2022-10-11T07:41:38.112Z,98232.00
2022-10-11T07:44:07.910Z,98228.00
2022-10-11T07:46:36.035Z,98222.00
2022-10-11T07:49:04.210Z,98233.00
2022-10-11T07:51:34.318Z,98223.00
2022-10-11T07:54:07.219Z,98235.00
2022-10-11T07:56:39.877Z,98233.00
2022-10-11T07:59:08.141Z,98239.00
2022-10-11T08:01:36.328Z,98235.00
2022-10-11T08:04:04.624Z,98229.00
2022-10-11T08:06:34.250Z,98242.00
2022-10-11T08:09:03.338Z,98231.00
2022-10-11T08:11:37.580Z,98239.00
2022-10-11T08:14:11.193Z,98236.00
2022-10-11T08:16:40.824Z,98250.00
2022-10-11T08:19:09.154Z,98243.00
2022-10-11T08:21:37.815Z,98240.00
2022-10-11T08:24:08.321Z,98241.00
2022-10-11T08:26:37.827Z,98249.00
2022-10-11T08:29:06.749Z,98240.00
2022-10-11T08:31:36.990Z,98243.00
2022-10-11T08:34:05.161Z,98246.00
2022-10-11T08:36:33.550Z,98248.00
2022-10-11T08:39:02.298Z,98244.00
2022-10-11T08:41:41.871Z,98242.00
2022-10-11T08:44:51.750Z,98241.00
2022-10-11T08:47:27.509Z,98256.00
2022-10-11T08:49:57.013Z,98247.00
2022-10-11T08:52:32.035Z,98249.00
2022-10-11T08:55:06.128Z,98255.00
2022-10-11T08:57:40.011Z,98250.00
2022-10-11T09:00:16.242Z,98252.00
2022-10-11T09:03:08.060Z,98246.00
2022-10-11T09:05:50.368Z,98247.00
2022-10-11T09:08:29.241Z,98260.00
2022-10-11T09:11:07.236Z,98246.00
2022-10-11T09:14:03.425Z,98252.00
2022-10-11T09:16:50.597Z,98236.00
2022-10-11T09:19:50.161Z,98239.00
2022-10-11T09:22:30.849Z,98237.00
2022-10-11T09:25:19.878Z,98238.00
2022-10-11T09:28:06.443Z,98237.00
2022-10-11T09:30:39.998Z,98250.00
2022-10-11T09:33:19.901Z,98252.00
2022-10-11T09:35:51.550Z,98251.00
2022-10-11T09:38:33.385Z,98251.00
2022-10-11T09:41:14.272Z,98249.00
2022-10-11T09:43:51.633Z,98251.00
2022-10-11T09:46:30.665Z,98262.00
2022-10-11T09:49:02.055Z,98259.00
2022-10-11T09:51:31.168Z,98257.00
2022-10-11T09:54:03.001Z,98254.00
2022-10-11T09:56:34.600Z,98258.00
2022-10-11T09:59:26.452Z,98259.00
2022-10-11T10:02:23.401Z,98268.00
2022-10-11T10:05:19.290Z,98268.00
2022-10-11T10:08:07.998Z,98267.00
2022-10-11T10:10:41.472Z,98269.00
2022-10-11T10:13:23.709Z,98272.00
2022-10-11T10:15:55.680Z,98255.00
2022-10-11T10:18:33.945Z,98255.00
2022-10-11T10:21:03.849Z,98268.00
2022-10-11T10:23:36.323Z,98268.00
2022-10-11T10:26:18.325Z,98261.00
2022-10-11T10:29:01.696Z,98259.00
2022-10-11T10:31:55.246Z,98270.00
2022-10-11T10:34:32.546Z,98266.00
2022-10-11T10:37:07.473Z,98264.00
2022-10-11T10:39:43.005Z,98267.00
2022-10-11T10:42:18.184Z,98267.00
2022-10-11T10:44:58.920Z,98269.00
2022-10-11T10:47:54.596Z,98258.00
2022-10-11T10:50:30.133Z,98261.00
2022-10-11T10:53:13.567Z,98250.00
2022-10-11T10:55:45.895Z,98268.00
2022-10-11T10:58:37.685Z,98251.00
2022-10-11T11:01:16.907Z,98257.00
2022-10-11T11:03:51.834Z,98261.00
2022-10-11T11:06:35.656Z,98263.00
2022-10-11T11:09:28.760Z,98263.00
2022-10-11T11:12:15.053Z,98258.00
2022-10-11T11:15:00.508Z,98253.00
2022-10-11T11:17:46.078Z,98246.00
2022-10-11T11:20:31.731Z,98254.00
2022-10-11T11:23:10.084Z,98251.00
2022-10-11T11:25:49.966Z,98247.00
2022-10-11T11:28:34.344Z,98243.00
2022-10-11T11:31:18.188Z,98246.00
2022-10-11T11:34:02.658Z,98248.00
2022-10-11T11:36:41.458Z,98237.00
2022-10-11T11:39:19.836Z,98242.00
2022-10-11T11:41:54.916Z,98243.00
2022-10-11T11:44:31.107Z,98244.00
2022-10-11T11:47:05.706Z,98249.00
2022-10-11T11:49:38.252Z,98245.00
2022-10-11T11:52:09.560Z,98247.00
2022-10-11T11:54:51.935Z,98233.00
2022-10-11T11:57:36.654Z,98228.00
2022-10-11T12:00:14.159Z,98235.00
2022-10-11T12:02:51.816Z,98234.00
2022-10-11T12:05:24.875Z,98229.00
2022-10-11T12:08:00.707Z,98234.00
2022-10-11T12:10:38.141Z,98236.00
2022-10-11T12:13:22.134Z,98226.00
2022-10-11T12:16:13.072Z,98243.00
2022-10-11T12:19:00.554Z,98220.00
2022-10-11T12:21:33.728Z,98236.00
2022-10-11T12:24:11.183Z,98219.00
2022-10-11T12:26:45.314Z,98233.00
2022-10-11T12:29:49.434Z,98223.00
2022-10-11T12:32:52.802Z,98220.00
2022-10-11T12:36:04.081Z,98227.00
2022-10-11T12:38:37.796Z,98217.00
2022-10-11T12:41:53.613Z,98212.00
2022-10-11T12:44:26.213Z,98209.00
2022-10-11T12:47:36.165Z,98217.00
2022-10-11T12:50:17.762Z,98209.00
2022-10-11T12:53:01.776Z,98212.00
2022-10-11T12:55:48.922Z,98204.00
2022-10-11T12:58:29.685Z,98207.00
2022-10-11T13:01:29.304Z,98200.00
2022-10-11T13:04:07.277Z,98219.00
2022-10-11T13:06:45.646Z,98213.00
2022-10-11T13:09:25.839Z,98211.00
2022-10-11T13:11:59.808Z,98207.00
2022-10-11T13:14:35.650Z,98212.00
2022-10-11T13:17:17.623Z,98217.00
2022-10-11T13:19:45.817Z,98211.00
2022-10-11T13:22:20.420Z,98209.00
2022-10-11T13:24:48.699Z,98216.00
2022-10-11T13:27:22.019Z,98202.00
2022-10-11T13:29:55.315Z,98212.00
2022-10-11T13:32:27.133Z,98212.00
2022-10-11T13:34:58.535Z,98203.00
2022-10-11T13:37:29.462Z,98201.00
2022-10-11T13:39:58.860Z,98190.00
2022-10-11T13:42:31.582Z,98207.00
2022-10-11T13:45:02.000Z,98198.00
2022-10-11T13:47:33.183Z,98204.00
2022-10-11T13:50:20.699Z,98206.00
2022-10-11T13:52:56.025Z,98190.00
2022-10-11T13:55:29.282Z,98204.00
2022-10-11T13:58:00.739Z,98205.00
2022-10-11T14:00:37.535Z,98196.00
2022-10-11T14:03:19.970Z,98200.00
2022-10-11T14:05:56.920Z,98193.00
2022-10-11T14:08:32.962Z,98197.00
2022-10-11T14:11:06.295Z,98192.00
2022-10-11T14:13:38.977Z,98182.00
2022-10-11T14:16:12.497Z,98190.00
2022-10-11T14:18:46.626Z,98194.00
2022-10-11T14:21:35.705Z,98184.00
2022-10-11T14:24:07.612Z,98190.00
2022-10-11T14:26:39.351Z,98185.00
2022-10-11T14:29:15.977Z,98194.00
2022-10-11T14:31:45.573Z,98186.00
2022-10-11T14:34:22.462Z,98189.00
2022-10-11T14:36:53.002Z,98189.00
2022-10-11T14:39:23.503Z,98190.00
2022-10-11T14:41:53.093Z,98200.00
2022-10-11T14:44:23.156Z,98204.00
2022-10-11T14:46:55.128Z,98205.00
2022-10-11T14:49:25.971Z,98196.00
2022-10-11T14:51:57.033Z,98201.00
2022-10-11T14:54:27.572Z,98211.00
2022-10-11T14:56:59.193Z,98211.00
2022-10-11T14:59:32.611Z,98204.00
2022-10-11T15:02:02.401Z,98203.00
2022-10-11T15:04:30.879Z,98195.00
2022-10-11T15:06:59.840Z,98207.00
2022-10-11T15:09:31.834Z,98205.00
2022-10-11T15:12:00.204Z,98201.00
2022-10-11T15:14:28.457Z,98209.00
2022-10-11T15:16:56.997Z,98201.00
2022-10-11T15:19:26.762Z,98199.00
2022-10-11T15:21:54.947Z,98200.00
2022-10-11T15:24:23.299Z,98201.00
2022-10-11T15:26:51.539Z,98206.00
2022-10-11T15:29:21.860Z,98199.00
2022-10-11T15:31:50.548Z,98208.00
2022-10-11T15:34:21.320Z,98205.00
2022-10-11T15:36:51.230Z,98194.00
2022-10-11T15:39:28.211Z,98190.00
2022-10-11T15:41:56.472Z,98201.00
2022-10-11T15:44:24.884Z,98183.00
2022-10-11T15:46:53.305Z,98188.00
2022-10-11T15:49:21.858Z,98187.00
2022-10-11T15:51:51.379Z,98192.00
2022-10-11T15:54:19.503Z,98185.00
2022-10-11T15:56:47.670Z,98197.00
2022-10-11T15:59:15.859Z,98192.00
2022-10-11T16:01:44.074Z,98199.00
2022-10-11T16:04:12.168Z,98202.00
2022-10-11T16:06:41.011Z,98201.00
2022-10-11T16:09:10.550Z,98204.00
2022-10-11T16:11:38.663Z,98196.00
2022-10-11T16:14:07.496Z,98203.00
2022-10-11T16:16:35.719Z,98199.00
2022-10-11T16:19:03.948Z,98194.00
2022-10-11T16:21:32.110Z,98210.00
2022-10-11T16:24:00.195Z,98198.00
2022-10-11T16:26:29.786Z,98202.00
2022-10-11T16:28:58.146Z,98197.00
2022-10-11T16:31:26.284Z,98200.00
2022-10-11T16:33:54.446Z,98202.00
2022-10-11T16:36:36.076Z,98202.00
2022-10-11T16:39:09.619Z,98200.00
2022-10-11T16:41:39.317Z,98202.00
2022-10-11T16:44:08.534Z,98215.00
2022-10-11T16:46:36.643Z,98214.00
2022-10-11T16:49:05.467Z,98210.00
2022-10-11T16:51:33.667Z,98206.00
2022-10-11T16:54:02.257Z,98220.00
2022-10-11T16:56:30.450Z,98208.00
2022-10-11T16:59:00.508Z,98219.00
2022-10-11T17:01:29.693Z,98214.00
2022-10-11T17:03:58.158Z,98206.00
2022-10-11T17:06:27.008Z,98221.00
2022-10-11T17:08:56.172Z,98218.00
2022-10-11T17:11:24.607Z,98205.00
2022-10-11T17:13:54.201Z,98206.00
2022-10-11T17:16:23.985Z,98212.00
2022-10-11T17:18:52.675Z,98204.00
2022-10-11T17:21:22.905Z,98219.00
2022-10-11T17:23:51.865Z,98221.00
2022-10-11T17:26:25.071Z,98219.00
2022-10-11T17:28:54.034Z,98227.00
2022-10-11T17:31:24.273Z,98211.00
2022-10-11T17:33:53.115Z,98214.00
2022-10-11T17:36:27.758Z,98220.00
2022-10-11T17:38:56.080Z,98220.00
2022-10-11T17:41:29.440Z,98217.00
2022-10-11T17:44:01.068Z,98214.00
2022-10-11T17:46:32.427Z,98213.00
2022-10-11T17:49:01.970Z,98228.00
2022-10-11T17:51:30.085Z,98222.00
2022-10-11T17:53:58.413Z,98221.00
2022-10-11T17:56:31.441Z,98208.00
2022-10-11T17:59:03.274Z,98217.00
2022-10-11T18:01:32.898Z,98218.00
2022-10-11T18:04:04.161Z,98224.00
2022-10-11T18:06:38.777Z,98213.00
2022-10-11T18:09:07.256Z,98209.00
2022-10-11T18:11:36.407Z,98217.00
2022-10-11T18:14:05.495Z,98208.00
2022-10-11T18:16:36.827Z,98215.00
2022-10-11T18:19:08.790Z,98204.00
2022-10-11T18:21:37.703Z,98217.00
2022-10-11T18:24:10.790Z,98221.00
2022-10-11T18:26:39.992Z,98214.00
2022-10-11T18:29:11.066Z,98216.00
2022-10-11T18:31:41.501Z,98221.00
2022-10-11T18:34:11.357Z,98205.00
2022-10-11T18:36:40.263Z,98208.00
2022-10-11T18:39:13.234Z,98216.00
2022-10-11T18:41:44.398Z,98214.00
2022-10-11T18:44:15.373Z,98211.00
2022-10-11T18:46:46.160Z,98220.00
2022-10-11T18:49:15.107Z,98213.00
2022-10-11T18:51:47.915Z,98222.00
2022-10-11T18:54:20.338Z,98216.00
2022-10-11T18:56:50.046Z,98216.00
2022-10-11T18:59:18.563Z,98212.00
2022-10-11T19:01:48.169Z,98221.00
2022-10-11T19:04:16.929Z,98210.00
2022-10-11T19:06:48.845Z,98214.00
2022-10-11T19:09:21.774Z,98219.00
2022-10-11T19:11:51.461Z,98209.00
2022-10-11T19:14:22.497Z,98213.00
2022-10-11T19:16:53.357Z,98208.00
2022-10-11T19:19:25.379Z,98218.00
2022-10-11T19:21:54.011Z,98214.00
2022-10-11T19:24:24.799Z,98205.00
2022-10-11T19:26:57.360Z,98221.00
2022-10-11T19:29:29.721Z,98209.00
2022-10-11T19:32:02.947Z,98213.00
2022-10-11T19:34:32.656Z,98217.00
2022-10-11T19:37:03.279Z,98218.00
2022-10-11T19:39:32.055Z,98214.00
2022-10-11T19:42:01.604Z,98210.00
2022-10-11T19:44:29.767Z,98209.00
2022-10-11T19:47:04.958Z,98207.00
2022-10-11T19:49:33.725Z,98223.00
2022-10-11T19:52:02.113Z,98218.00
2022-10-11T19:54:30.506Z,98222.00
2022-10-11T19:56:58.652Z,98221.00
2022-10-11T19:59:27.994Z,98224.00
2022-10-11T20:01:56.229Z,98233.00
2022-10-11T20:07:14.210Z,98233.00
2022-10-11T20:09:42.704Z,98229.00
2022-10-11T20:12:10.856Z,98230.00
2022-10-11T20:14:39.044Z,98232.00
2022-10-11T20:17:07.292Z,98248.00
2022-10-11T20:19:36.804Z,98239.00
2022-10-11T20:22:05.066Z,98236.00
2022-10-11T20:24:34.468Z,98231.00
2022-10-11T20:27:04.949Z,98237.00
2022-10-11T20:29:33.234Z,98242.00
2022-10-11T20:32:01.529Z,98243.00
2022-10-11T20:34:30.319Z,98243.00
2022-10-11T20:36:59.959Z,98233.00
2022-10-11T20:39:28.261Z,98238.00
2022-10-11T20:41:56.422Z,98236.00
2022-10-11T20:44:24.777Z,98244.00
2022-10-11T20:46:52.877Z,98240.00
2022-10-11T20:49:22.357Z,98242.00
2022-10-11T20:51:51.026Z,98241.00
2022-10-11T20:54:20.788Z,98246.00
2022-10-11T20:56:49.113Z,98232.00
2022-10-11T20:59:17.315Z,98245.00
2022-10-11T21:01:45.553Z,98240.00
2022-10-11T21:04:19.908Z,98247.00
2022-10-11T21:06:49.245Z,98248.00
2022-10-11T21:09:18.984Z,98241.00
2022-10-11T21:11:48.430Z,98253.00
2022-10-11T21:14:17.178Z,98229.00
2022-10-11T21:16:45.267Z,98240.00
2022-10-11T21:19:16.087Z,98233.00
2022-10-11T21:21:49.681Z,98231.00
2022-10-11T21:24:21.347Z,98229.00
2022-10-11T21:26:50.832Z,98243.00
2022-10-11T21:29:19.251Z,98233.00
2022-10-11T21:31:47.418Z,98247.00
2022-10-11T21:34:15.613Z,98236.00
2022-10-11T21:36:44.225Z,98230.00
2022-10-11T21:39:12.332Z,98232.00
2022-10-11T21:41:42.081Z,98224.00
2022-10-11T21:44:11.577Z,98242.00
2022-10-11T21:47:05.591Z,98238.00
2022-10-11T21:49:28.219Z,98234.00
2022-10-11T21:51:56.540Z,98228.00
2022-10-11T21:54:24.612Z,98226.00
2022-10-11T21:56:52.733Z,98243.00
2022-10-11T21:59:22.229Z,98243.00
2022-10-11T22:01:56.922Z,98235.00
2022-10-11T22:04:27.548Z,98235.00
2022-10-11T22:06:55.638Z,98232.00
2022-10-11T22:09:23.978Z,98243.00
2022-10-11T22:11:52.095Z,98238.00
2022-10-11T22:14:21.631Z,98237.00
2022-10-11T22:16:49.806Z,98229.00
2022-10-11T22:19:17.931Z,98235.00
2022-10-11T22:21:46.054Z,98219.00
2022-10-11T22:24:14.260Z,98218.00
2022-10-11T22:26:42.364Z,98239.00
2022-10-11T22:29:10.613Z,98226.00
2022-10-11T22:31:40.128Z,98238.00
2022-10-11T22:34:08.235Z,98224.00
2022-10-11T22:36:36.586Z,98235.00
2022-10-11T22:39:08.048Z,98224.00
2022-10-11T22:41:37.140Z,98229.00
2022-10-11T22:44:05.900Z,98223.00
2022-10-11T22:46:34.084Z,98221.00
2022-10-11T22:49:03.690Z,98218.00
2022-10-11T22:51:32.513Z,98212.00
2022-10-11T22:54:00.628Z,98226.00
2022-10-11T22:56:28.680Z,98221.00
2022-10-11T22:58:56.792Z,98212.00
2022-10-11T23:01:24.921Z,98224.00
2022-10-11T23:03:53.882Z,98219.00
2022-10-11T23:06:23.513Z,98215.00
2022-10-11T23:08:51.618Z,98212.00
2022-10-11T23:11:19.741Z,98213.00
2022-10-11T23:13:47.846Z,98213.00
2022-10-11T23:16:15.904Z,98204.00
2022-10-11T23:18:44.180Z,98213.00
2022-10-11T23:21:13.186Z,98208.00
2022-10-11T23:23:42.643Z,98208.00
2022-10-11T23:26:13.740Z,98193.00
2022-10-11T23:28:42.534Z,98215.00
2022-10-11T23:31:13.666Z,98202.00
2022-10-11T23:33:41.810Z,98196.00
2022-10-11T23:36:15.939Z,98207.00
2022-10-11T23:38:46.120Z,98207.00
2022-10-11T23:41:14.276Z,98212.00
2022-10-11T23:43:42.336Z,98216.00
2022-10-11T23:46:10.421Z,98212.00
2022-10-11T23:48:38.567Z,98219.00
2022-10-11T23:51:07.785Z,98223.00
2022-10-11T23:53:36.362Z,98223.00
2022-10-11T23:56:06.942Z,98214.00
2022-10-11T23:58:35.292Z,98222.00
